Terminal Aerodrome Forecast
Issued by NWS

Home | Current Version | Previous Version | Text Only | Print | Product List | Glossary On
Versions: 1 2 3 4 5 6 7 8 9 10 11 12 13 14 15 16 17 18 19 20 21 22 23 24 25 26 27 28 29 30 31 32 33 34 35 36 37 38 39 40 41 42 43 44 45 46
000
FTUS43 KLOT 140851 AAA
TAFGYY
TAF AMD
KGYY 140851Z 1409/1506 33014G21KT 5SM -SN SCT015 BKN025 OVC035
      TEMPO 1409/1413 3/4SM -SN BKN009 OVC015
     FM141400 33011KT P6SM SCT025 SCT250
     FM142100 29008KT P6SM SCT250
     FM150200 24007KT P6SM BKN045 OVC060=

USA.gov is the U.S. government's official web portal to all federal, state and local government web resources and services.